Terminal Aerodrome Forecast
Issued by NWS

Home | Current Version | Previous Version | Text Only | Print | Product List | Glossary On
Versions: 1 2 3 4 5 6 7 8 9 10 11 12 13 14 15 16
000
FTUS45 KABQ 140500
TAFLVS
TAF
KLVS 140526Z 1406/1506 06004KT P6SM BKN100
     FM141900 17008KT P6SM VCSH BKN080
      TEMPO 1421/1501 5SM -TSRA OVC040CB
     FM150400 02012KT P6SM VCSH OVC050=

USA.gov is the U.S. government's official web portal to all federal, state and local government web resources and services.